createdAt,value
2023-02-08T00:01:19.252Z,15.27
2023-02-08T00:03:47.432Z,10.73
2023-02-08T00:06:17.144Z,10.63
2023-02-08T00:08:45.423Z,11.00
2023-02-08T00:11:14.000Z,10.53
2023-02-08T00:13:42.952Z,12.73
2023-02-08T00:16:12.427Z,10.77
2023-02-08T00:18:40.712Z,10.97
2023-02-08T00:21:10.420Z,12.37
2023-02-08T00:23:39.933Z,13.17
2023-02-08T00:26:08.261Z,10.03
2023-02-08T00:28:36.368Z,10.13
2023-02-08T00:31:04.453Z,10.30
2023-02-08T00:33:32.438Z,12.10
2023-02-08T00:36:00.913Z,10.97
2023-02-08T00:38:29.145Z,11.27
2023-02-08T00:40:58.464Z,11.50
2023-02-08T00:43:26.408Z,11.70
2023-02-08T00:45:55.820Z,11.03
2023-02-08T00:48:23.763Z,11.83
2023-02-08T00:51:01.908Z,7.33
2023-02-08T00:53:29.807Z,8.33
2023-02-08T00:55:59.110Z,11.33
2023-02-08T00:58:27.056Z,11.10
2023-02-08T01:00:55.092Z,12.83
2023-02-08T01:03:23.356Z,12.13
2023-02-08T01:05:51.258Z,8.83
2023-02-08T01:08:20.559Z,10.67
2023-02-08T01:10:49.122Z,12.63
2023-02-08T01:13:18.562Z,11.13
2023-02-08T01:15:46.503Z,10.27
2023-02-08T01:18:14.384Z,11.60
2023-02-08T01:20:42.475Z,12.10
2023-02-08T01:23:10.402Z,12.13
2023-02-08T01:25:38.304Z,11.73
2023-02-08T01:28:06.271Z,9.70
2023-02-08T01:30:35.621Z,12.93
2023-02-08T01:33:03.620Z,12.57
2023-02-08T01:35:31.546Z,9.37
2023-02-08T01:37:59.497Z,9.37
2023-02-08T01:40:27.372Z,10.20
2023-02-08T01:42:55.299Z,11.13
2023-02-08T01:45:27.726Z,11.97
2023-02-08T01:48:04.664Z,10.60
2023-02-08T01:50:38.016Z,8.97
2023-02-08T01:53:06.172Z,8.33
2023-02-08T01:55:37.127Z,12.73
2023-02-08T01:58:07.614Z,7.77
2023-02-08T02:00:35.532Z,11.57
2023-02-08T02:03:06.053Z,9.43
2023-02-08T02:05:37.099Z,8.97
2023-02-08T02:08:05.275Z,13.00
2023-02-08T02:10:35.394Z,8.60
2023-02-08T02:13:06.386Z,8.87
2023-02-08T02:15:34.517Z,12.60
2023-02-08T02:18:03.977Z,13.67
2023-02-08T02:20:41.654Z,11.03
2023-02-08T02:23:30.070Z,13.43
2023-02-08T02:26:21.564Z,15.47
2023-02-08T02:29:12.508Z,11.53
2023-02-08T02:32:02.129Z,14.40
2023-02-08T02:34:35.909Z,12.27
2023-02-08T02:37:12.868Z,10.07
2023-02-08T02:39:44.507Z,12.70
2023-02-08T02:42:32.740Z,17.70
2023-02-08T02:45:07.711Z,12.00
2023-02-08T02:47:41.195Z,8.23
2023-02-08T02:50:14.928Z,13.13
2023-02-08T02:52:46.551Z,11.53
2023-02-08T02:55:16.792Z,13.70
2023-02-08T02:57:46.300Z,11.70
2023-02-08T03:00:22.215Z,12.50
2023-02-08T03:02:51.598Z,9.63
2023-02-08T03:05:19.654Z,10.67
2023-02-08T03:08:17.166Z,10.50
2023-02-08T03:11:20.682Z,9.20
2023-02-08T03:14:05.372Z,13.07
2023-02-08T03:16:40.491Z,10.50
2023-02-08T03:19:15.819Z,10.37
2023-02-08T03:21:48.188Z,11.90
2023-02-08T03:24:26.347Z,8.90
2023-02-08T03:26:58.463Z,11.93
2023-02-08T03:29:34.720Z,9.00
2023-02-08T03:32:05.816Z,12.37
2023-02-08T03:34:38.883Z,12.57
2023-02-08T03:37:09.785Z,9.60
2023-02-08T03:39:38.912Z,11.37
2023-02-08T03:42:10.434Z,10.93
2023-02-08T03:44:39.953Z,10.57
2023-02-08T03:47:10.657Z,11.40
2023-02-08T03:49:40.576Z,9.73
2023-02-08T03:52:11.134Z,11.27
2023-02-08T03:54:44.080Z,11.00
2023-02-08T03:57:14.956Z,13.57
2023-02-08T03:59:45.028Z,10.50
2023-02-08T04:02:17.022Z,9.70
2023-02-08T04:04:48.870Z,11.27
2023-02-08T04:07:18.401Z,11.43
2023-02-08T04:09:46.396Z,13.50
2023-02-08T04:12:14.516Z,14.00
2023-02-08T04:14:42.614Z,11.43
2023-02-08T04:17:10.535Z,14.13
2023-02-08T04:19:38.466Z,9.77
2023-02-08T04:22:07.821Z,16.73
2023-02-08T04:24:35.691Z,14.80
2023-02-08T04:27:05.829Z,12.57
2023-02-08T04:29:33.957Z,15.53
2023-02-08T04:32:02.332Z,9.60
2023-02-08T04:34:30.260Z,12.80
2023-02-08T04:36:58.132Z,11.37
2023-02-08T04:39:27.678Z,13.07
2023-02-08T04:41:55.579Z,11.70
2023-02-08T04:44:23.502Z,12.20
2023-02-08T04:46:51.923Z,12.30
2023-02-08T04:49:19.890Z,13.20
2023-02-08T04:51:47.803Z,12.23
2023-02-08T04:54:15.728Z,12.27
2023-02-08T04:56:44.992Z,9.53
2023-02-08T04:59:12.877Z,14.10
2023-02-08T05:01:40.871Z,12.10
2023-02-08T05:04:08.805Z,9.87
2023-02-08T05:06:36.722Z,12.07
2023-02-08T05:09:05.128Z,12.90
2023-02-08T05:11:33.052Z,15.53
2023-02-08T05:14:02.373Z,11.57
2023-02-08T05:16:30.238Z,11.73
2023-02-08T05:18:58.313Z,12.83
2023-02-08T05:21:26.280Z,11.47
2023-02-08T05:23:54.230Z,11.57
2023-02-08T05:26:22.167Z,11.30
2023-02-08T05:28:50.094Z,12.97
2023-02-08T05:31:21.822Z,13.00
2023-02-08T05:33:50.427Z,11.73
2023-02-08T05:36:18.537Z,10.37
2023-02-08T05:38:46.830Z,13.13
2023-02-08T05:41:14.760Z,19.03
2023-02-08T05:43:42.812Z,15.03
2023-02-08T05:46:10.725Z,14.53
2023-02-08T05:48:40.056Z,21.40
2023-02-08T05:51:07.936Z,15.93
2023-02-08T05:53:36.854Z,13.77
2023-02-08T05:56:04.902Z,18.63
2023-02-08T05:58:32.836Z,21.70
2023-02-08T06:01:00.712Z,15.67
2023-02-08T06:03:28.674Z,10.77
2023-02-08T06:06:01.862Z,13.23
2023-02-08T06:08:29.786Z,20.80
2023-02-08T06:10:57.667Z,16.13
2023-02-08T06:13:25.644Z,19.77
2023-02-08T06:15:53.537Z,15.10
2023-02-08T06:18:21.440Z,16.83
2023-02-08T06:20:53.752Z,13.03
2023-02-08T06:23:23.496Z,17.47
2023-02-08T06:25:52.017Z,15.20
2023-02-08T06:28:19.932Z,14.70
2023-02-08T06:30:50.167Z,16.40
2023-02-08T06:33:18.474Z,18.63
2023-02-08T06:35:47.079Z,18.43
2023-02-08T06:38:14.995Z,18.03
2023-02-08T06:40:45.212Z,17.17
2023-02-08T06:43:13.132Z,13.23
2023-02-08T06:45:42.810Z,19.73
2023-02-08T06:48:10.814Z,20.23
2023-02-08T06:50:39.019Z,18.07
2023-02-08T06:53:07.124Z,19.07
2023-02-08T06:55:35.148Z,14.23
2023-02-08T06:58:04.419Z,17.03
2023-02-08T07:00:32.864Z,23.97
2023-02-08T07:03:01.636Z,23.77
2023-02-08T07:05:29.557Z,22.93
2023-02-08T07:07:57.553Z,29.73
2023-02-08T07:10:25.455Z,16.83
2023-02-08T07:12:53.336Z,24.97
2023-02-08T07:15:22.647Z,20.57
2023-02-08T07:17:50.540Z,20.93
2023-02-08T07:20:18.526Z,16.77
2023-02-08T07:22:46.458Z,23.73
2023-02-08T07:25:14.380Z,23.83
2023-02-08T07:27:42.324Z,18.27
2023-02-08T07:30:11.409Z,30.33
2023-02-08T07:32:40.737Z,22.40
2023-02-08T07:35:09.347Z,25.13
2023-02-08T07:37:37.241Z,24.40
2023-02-08T07:40:05.376Z,31.30
2023-02-08T07:42:34.368Z,25.37
2023-02-08T07:45:02.244Z,30.70
2023-02-08T07:47:30.172Z,22.40
2023-02-08T07:49:59.476Z,20.20
2023-02-08T07:52:27.369Z,22.60
2023-02-08T07:54:55.314Z,23.30
2023-02-08T07:57:23.573Z,20.30
2023-02-08T07:59:53.858Z,21.37
2023-02-08T08:02:22.152Z,22.97
2023-02-08T08:04:50.067Z,19.20
2023-02-08T08:07:19.580Z,16.97
2023-02-08T08:09:47.488Z,28.87
2023-02-08T08:12:15.375Z,20.47
2023-02-08T08:14:43.264Z,16.93
2023-02-08T08:17:11.196Z,17.23
2023-02-08T08:19:39.469Z,18.83
2023-02-08T08:22:07.357Z,21.20
2023-02-08T08:24:36.690Z,21.33
2023-02-08T08:27:04.892Z,18.87
2023-02-08T08:29:33.294Z,18.83
2023-02-08T08:32:01.384Z,22.83
2023-02-08T08:34:30.735Z,17.53
2023-02-08T08:36:59.010Z,20.83
2023-02-08T08:39:27.386Z,20.70
2023-02-08T08:41:58.727Z,30.63
2023-02-08T08:44:26.931Z,22.37
2023-02-08T08:46:56.779Z,18.10
2023-02-08T08:49:24.780Z,22.27
2023-02-08T08:51:52.790Z,16.73
2023-02-08T08:54:22.538Z,24.43
2023-02-08T08:56:50.689Z,22.43
2023-02-08T08:59:22.075Z,18.23
2023-02-08T09:01:50.042Z,22.13
2023-02-08T09:04:18.009Z,19.00
2023-02-08T09:06:46.029Z,22.27
2023-02-08T09:09:14.190Z,30.70
2023-02-08T09:11:42.151Z,22.60
2023-02-08T09:14:10.092Z,23.57
2023-02-08T09:16:41.195Z,20.63
2023-02-08T09:19:10.709Z,19.87
2023-02-08T09:21:38.695Z,18.03
2023-02-08T09:24:07.115Z,26.60
2023-02-08T09:26:35.205Z,21.17
2023-02-08T09:29:03.173Z,21.33
2023-02-08T09:31:33.355Z,19.90
2023-02-08T09:34:02.842Z,24.00
2023-02-08T09:36:33.932Z,24.23
2023-02-08T09:39:03.672Z,23.73
2023-02-08T09:41:42.698Z,28.90
2023-02-08T09:44:18.644Z,26.80
2023-02-08T09:46:53.343Z,25.00
2023-02-08T09:49:26.208Z,24.60
2023-02-08T09:51:58.028Z,24.63
2023-02-08T09:54:29.902Z,19.90
2023-02-08T09:57:00.027Z,19.17
2023-02-08T09:59:30.419Z,20.03
2023-02-08T10:02:02.022Z,25.73
2023-02-08T10:04:38.547Z,28.53
2023-02-08T10:07:06.613Z,25.83
2023-02-08T10:09:34.516Z,22.33
2023-02-08T10:12:11.668Z,19.17
2023-02-08T10:14:55.250Z,22.30
2023-02-08T10:17:33.669Z,20.87
2023-02-08T10:20:14.207Z,20.93
2023-02-08T10:22:50.353Z,20.67
2023-02-08T10:25:28.272Z,20.03
2023-02-08T10:28:06.917Z,21.30
2023-02-08T10:30:40.539Z,17.03
2023-02-08T10:33:13.660Z,19.03
2023-02-08T10:35:46.338Z,20.30
2023-02-08T10:38:44.095Z,16.27
2023-02-08T10:41:16.967Z,19.77
2023-02-08T10:43:47.360Z,19.73
2023-02-08T10:46:20.274Z,19.67
2023-02-08T10:48:58.674Z,19.03
2023-02-08T10:51:28.311Z,21.17
2023-02-08T10:53:56.283Z,15.33
2023-02-08T10:56:36.814Z,19.37
2023-02-08T10:59:08.909Z,14.73
2023-02-08T11:01:36.796Z,15.77
2023-02-08T11:04:06.870Z,13.73
2023-02-08T11:06:36.255Z,18.13
2023-02-08T11:09:04.998Z,16.77
2023-02-08T11:11:36.326Z,17.57
2023-02-08T11:14:10.094Z,18.67
2023-02-08T11:16:38.416Z,17.57
2023-02-08T11:19:08.001Z,22.03
2023-02-08T11:21:38.720Z,17.07
2023-02-08T11:24:22.794Z,16.53
2023-02-08T11:26:50.756Z,17.77
2023-02-08T11:29:20.707Z,12.73
2023-02-08T11:32:00.162Z,17.47
2023-02-08T11:34:29.156Z,14.90
2023-02-08T11:36:59.741Z,18.57
2023-02-08T11:39:29.629Z,13.50
2023-02-08T11:42:00.286Z,16.80
2023-02-08T11:44:31.568Z,15.67
2023-02-08T11:47:02.069Z,15.37
2023-02-08T11:49:33.638Z,15.53
2023-02-08T11:52:03.016Z,16.47
2023-02-08T11:54:36.698Z,14.57
2023-02-08T11:57:10.701Z,14.00
2023-02-08T11:59:38.595Z,11.03
2023-02-08T12:02:27.440Z,15.87
2023-02-08T12:04:55.416Z,15.47
2023-02-08T12:07:31.698Z,15.57
2023-02-08T12:10:10.372Z,13.73
2023-02-08T12:12:48.751Z,16.00
2023-02-08T12:15:22.799Z,13.47
2023-02-08T12:18:16.816Z,22.00
2023-02-08T12:20:47.057Z,18.93
2023-02-08T12:23:43.158Z,15.90
2023-02-08T12:26:18.147Z,12.90
2023-02-08T12:28:59.184Z,11.27
2023-02-08T12:31:38.288Z,12.43
2023-02-08T12:34:12.012Z,15.47
2023-02-08T12:37:24.730Z,16.47
2023-02-08T12:40:18.022Z,16.30
2023-02-08T12:42:56.201Z,11.07
2023-02-08T12:45:59.124Z,12.37
2023-02-08T12:48:38.825Z,12.20
2023-02-08T12:51:13.592Z,10.67
2023-02-08T12:53:45.032Z,15.33
2023-02-08T12:56:17.256Z,10.47
2023-02-08T12:58:47.123Z,12.70
2023-02-08T13:01:18.035Z,12.47
2023-02-08T13:03:49.874Z,11.47
2023-02-08T13:06:21.197Z,13.10
2023-02-08T13:08:52.089Z,10.27
2023-02-08T13:11:26.692Z,12.67
2023-02-08T13:13:58.967Z,11.33
2023-02-08T13:16:30.570Z,11.27
2023-02-08T13:19:14.192Z,13.30
2023-02-08T13:21:44.066Z,11.00
2023-02-08T13:24:26.798Z,11.47
2023-02-08T13:26:56.108Z,11.73
2023-02-08T13:29:26.580Z,11.30
2023-02-08T13:31:59.692Z,12.33
2023-02-08T13:34:32.339Z,10.37
2023-02-08T13:37:02.459Z,12.60
2023-02-08T13:39:35.833Z,9.60
2023-02-08T13:42:07.065Z,8.50
2023-02-08T13:44:37.306Z,12.17
2023-02-08T13:47:06.841Z,11.87
2023-02-08T13:50:00.106Z,7.90
2023-02-08T13:52:55.186Z,11.27
2023-02-08T13:55:55.653Z,8.80
2023-02-08T13:58:39.463Z,8.73
2023-02-08T14:01:22.141Z,6.80
2023-02-08T14:04:18.749Z,9.07
2023-02-08T14:06:49.381Z,7.57
2023-02-08T14:09:23.207Z,7.50
2023-02-08T14:11:52.968Z,9.80
2023-02-08T14:14:24.740Z,8.10
2023-02-08T14:17:11.356Z,8.40
2023-02-08T14:19:41.138Z,9.30
2023-02-08T14:22:17.819Z,11.70
2023-02-08T14:24:49.608Z,7.53
2023-02-08T14:27:21.225Z,7.77
2023-02-08T14:29:59.260Z,9.07
2023-02-08T14:32:28.928Z,6.60
2023-02-08T14:35:05.872Z,10.30
2023-02-08T14:37:34.874Z,8.93
2023-02-08T14:40:36.172Z,6.53
2023-02-08T14:43:06.061Z,10.17
2023-02-08T14:45:36.728Z,7.73
2023-02-08T14:48:18.579Z,9.93
2023-02-08T14:51:02.952Z,9.10
2023-02-08T14:53:35.812Z,7.90
2023-02-08T14:56:07.934Z,7.50
2023-02-08T14:58:38.115Z,8.00
2023-02-08T15:01:14.245Z,9.50
2023-02-08T15:03:43.296Z,8.10
2023-02-08T15:06:49.914Z,6.80
2023-02-08T15:09:20.515Z,9.33
2023-02-08T15:11:58.545Z,9.17
2023-02-08T15:14:26.708Z,6.57
2023-02-08T15:16:57.294Z,8.30
2023-02-08T15:19:27.626Z,8.33
2023-02-08T15:21:55.893Z,7.70
2023-02-08T15:24:29.085Z,9.03
2023-02-08T15:26:58.162Z,7.83
2023-02-08T15:29:39.123Z,8.30
2023-02-08T15:32:17.607Z,8.20
2023-02-08T15:34:46.722Z,9.50
2023-02-08T15:37:17.423Z,8.97
2023-02-08T15:39:45.687Z,9.53
2023-02-08T15:42:17.857Z,7.87
2023-02-08T15:44:46.276Z,8.87
2023-02-08T15:47:18.848Z,8.27
2023-02-08T15:49:50.737Z,7.10
2023-02-08T15:52:20.693Z,7.63
2023-02-08T15:54:49.248Z,9.60
2023-02-08T15:57:31.728Z,9.13
2023-02-08T16:00:00.215Z,8.30
2023-02-08T16:02:31.387Z,8.70
2023-02-08T16:05:00.004Z,9.03
2023-02-08T16:07:30.151Z,7.30
2023-02-08T16:09:58.683Z,13.13
2023-02-08T16:12:28.226Z,13.07
2023-02-08T16:14:57.261Z,12.63
2023-02-08T16:17:38.466Z,11.83
2023-02-08T16:20:25.596Z,10.30
2023-02-08T16:22:57.236Z,10.87
2023-02-08T16:25:44.054Z,13.97
2023-02-08T16:28:29.364Z,11.53
2023-02-08T16:30:58.549Z,10.83
2023-02-08T16:33:28.726Z,10.77
2023-02-08T16:36:01.883Z,9.53
2023-02-08T16:38:31.587Z,9.50
2023-02-08T16:41:12.063Z,6.10
2023-02-08T16:43:43.918Z,4.83
2023-02-08T16:46:24.683Z,7.13
2023-02-08T16:48:55.638Z,5.27
2023-02-08T16:51:26.318Z,8.90
2023-02-08T16:53:57.461Z,6.97
2023-02-08T16:56:25.649Z,7.33
2023-02-08T16:58:53.574Z,5.77
2023-02-08T17:01:23.360Z,5.00
2023-02-08T17:03:52.992Z,5.00
2023-02-08T17:06:30.357Z,6.03
2023-02-08T17:08:58.447Z,8.03
2023-02-08T17:11:26.343Z,10.70
2023-02-08T17:13:54.287Z,17.40
2023-02-08T17:16:23.647Z,17.20
2023-02-08T17:18:51.788Z,11.53
2023-02-08T17:21:20.293Z,11.87
2023-02-08T17:23:50.125Z,8.87
2023-02-08T17:26:20.023Z,11.23
2023-02-08T17:28:47.974Z,8.87
2023-02-08T17:31:15.997Z,13.20
2023-02-08T17:33:44.127Z,12.17
2023-02-08T17:36:13.943Z,8.07
2023-02-08T17:38:42.901Z,7.97
2023-02-08T17:41:14.856Z,6.33
2023-02-08T17:43:42.888Z,10.80
2023-02-08T17:46:11.675Z,11.93
2023-02-08T17:48:39.858Z,10.13
2023-02-08T17:51:11.197Z,11.77
2023-02-08T17:53:40.895Z,14.70
2023-02-08T17:56:09.711Z,24.60
2023-02-08T17:58:39.009Z,13.03
2023-02-08T18:01:08.157Z,40.07
2023-02-08T18:03:36.424Z,41.83
2023-02-08T18:06:06.115Z,28.83
2023-02-08T18:08:35.081Z,22.23
2023-02-08T18:11:05.116Z,16.07
2023-02-08T18:13:33.241Z,16.97
2023-02-08T18:16:08.023Z,16.77
2023-02-08T18:18:35.974Z,23.57
2023-02-08T18:21:09.243Z,21.30
2023-02-08T18:23:37.202Z,18.87
2023-02-08T18:26:06.750Z,24.00
2023-02-08T18:28:34.868Z,19.27
2023-02-08T18:31:05.791Z,14.00
2023-02-08T18:33:34.375Z,18.03
2023-02-08T18:36:02.727Z,16.73
2023-02-08T18:38:30.893Z,17.87
2023-02-08T18:40:59.084Z,19.93
2023-02-08T18:43:27.726Z,23.90
2023-02-08T18:46:04.788Z,18.47
2023-02-08T18:48:35.242Z,17.17
2023-02-08T18:51:03.929Z,18.87
2023-02-08T18:53:33.420Z,32.53
2023-02-08T18:56:02.586Z,18.60
2023-02-08T18:58:30.571Z,23.87
2023-02-08T19:01:07.475Z,19.50
2023-02-08T19:03:36.154Z,19.13
2023-02-08T19:06:06.345Z,18.67
2023-02-08T19:09:06.134Z,22.47
2023-02-08T19:11:37.677Z,20.33
2023-02-08T19:14:08.145Z,20.00
2023-02-08T19:16:38.467Z,23.53
2023-02-08T19:19:07.578Z,26.10
2023-02-08T19:21:36.041Z,23.40
2023-02-08T19:24:04.010Z,21.03
2023-02-08T19:26:33.811Z,24.23
2023-02-08T19:29:03.570Z,25.67
2023-02-08T19:31:32.028Z,27.03
2023-02-08T19:34:03.307Z,20.57
2023-02-08T19:36:32.900Z,23.90
2023-02-08T19:39:02.061Z,21.17
2023-02-08T19:41:34.371Z,23.17
2023-02-08T19:44:06.715Z,22.87
2023-02-08T19:46:38.764Z,21.97
2023-02-08T19:49:08.382Z,19.73
2023-02-08T19:51:37.176Z,28.73
2023-02-08T19:54:08.538Z,29.63
2023-02-08T19:56:36.516Z,23.80
2023-02-08T19:59:05.576Z,17.13
2023-02-08T20:01:35.521Z,22.03
2023-02-08T20:04:03.955Z,23.17
2023-02-08T20:06:35.246Z,28.23
2023-02-08T20:09:04.028Z,20.57
2023-02-08T20:11:33.899Z,26.20
2023-02-08T20:14:02.588Z,25.80
2023-02-08T20:16:31.866Z,26.20
2023-02-08T20:19:00.665Z,20.87
2023-02-08T20:21:28.899Z,25.83
2023-02-08T20:23:58.493Z,24.00
2023-02-08T20:26:27.869Z,20.47
2023-02-08T20:28:58.788Z,25.73
2023-02-08T20:31:29.223Z,22.47
2023-02-08T20:33:59.779Z,28.87
2023-02-08T20:36:29.943Z,25.90
2023-02-08T20:39:00.109Z,25.50
2023-02-08T20:41:31.156Z,28.70
2023-02-08T20:43:59.088Z,32.43
2023-02-08T20:46:30.840Z,32.53
2023-02-08T20:49:00.098Z,30.00
2023-02-08T20:51:28.803Z,21.30
2023-02-08T20:53:59.587Z,32.60
2023-02-08T20:56:29.260Z,33.93
2023-02-08T20:58:57.245Z,30.30
2023-02-08T21:01:26.810Z,28.47
2023-02-08T21:03:54.934Z,32.63
2023-02-08T21:06:26.458Z,29.67
2023-02-08T21:08:55.704Z,25.73
2023-02-08T21:11:27.015Z,23.20
2023-02-08T21:13:55.080Z,23.50
2023-02-08T21:16:23.157Z,30.37
2023-02-08T21:18:51.507Z,26.80
2023-02-08T21:21:19.788Z,29.67
2023-02-08T21:23:48.135Z,26.90
2023-02-08T21:26:18.020Z,26.60
2023-02-08T21:28:47.640Z,30.87
2023-02-08T21:31:17.381Z,26.80
2023-02-08T21:33:45.698Z,29.03
2023-02-08T21:36:15.527Z,25.63
2023-02-08T21:38:43.716Z,31.13
2023-02-08T21:41:13.731Z,34.77
2023-02-08T21:43:41.690Z,29.57
2023-02-08T21:46:11.226Z,31.83
2023-02-08T21:48:53.101Z,31.10
2023-02-08T21:51:39.163Z,29.77
2023-02-08T21:54:30.422Z,29.47
2023-02-08T21:56:59.778Z,29.70
2023-02-08T21:59:27.886Z,29.37
2023-02-08T22:01:57.333Z,29.10
2023-02-08T22:04:25.492Z,30.23
2023-02-08T22:06:52.726Z,34.30
2023-02-08T22:09:21.861Z,34.10
2023-02-08T22:11:50.300Z,27.40
2023-02-08T22:14:18.268Z,26.63
2023-02-08T22:16:46.175Z,34.13
2023-02-08T22:19:15.619Z,36.00
2023-02-08T22:21:43.542Z,29.97
2023-02-08T22:24:11.464Z,29.60
2023-02-08T22:26:39.502Z,31.90
2023-02-08T22:29:07.423Z,29.50
2023-02-08T22:31:36.751Z,35.20
2023-02-08T22:34:05.071Z,32.47
2023-02-08T22:36:34.617Z,30.43
2023-02-08T22:39:02.565Z,30.00
2023-02-08T22:41:30.464Z,32.87
2023-02-08T22:43:58.441Z,31.00
2023-02-08T22:46:26.477Z,33.10
2023-02-08T22:48:54.405Z,30.70
2023-02-08T22:51:23.631Z,37.83
2023-02-08T22:53:52.946Z,32.30
2023-02-08T22:56:20.909Z,36.03
2023-02-08T22:58:48.816Z,30.97
2023-02-08T23:01:17.958Z,34.57
2023-02-08T23:03:45.980Z,32.73
2023-02-08T23:06:16.989Z,37.47
2023-02-08T23:08:45.029Z,30.17
2023-02-08T23:11:15.395Z,36.40
2023-02-08T23:13:43.316Z,28.23
2023-02-08T23:16:13.265Z,34.70
2023-02-08T23:18:41.576Z,28.97
2023-02-08T23:21:11.565Z,36.43
2023-02-08T23:23:39.951Z,35.57
2023-02-08T23:26:08.651Z,40.20
2023-02-08T23:28:38.441Z,35.57
2023-02-08T23:31:06.992Z,36.63
2023-02-08T23:33:35.486Z,31.57
2023-02-08T23:36:06.479Z,36.97
2023-02-08T23:38:34.433Z,33.90
2023-02-08T23:41:04.184Z,37.93
2023-02-08T23:43:32.102Z,33.77
2023-02-08T23:46:06.918Z,33.20
2023-02-08T23:48:34.865Z,25.23
2023-02-08T23:51:04.095Z,34.37
2023-02-08T23:53:32.559Z,37.80
2023-02-08T23:56:06.378Z,34.60
2023-02-08T23:58:34.344Z,30.30
